Sherman, Wisconsin
Current Conditions -  °F | °C
As of 8:55 AM on Saturday 20 Dec 2014 (Local Time) from KPBH Reporting Station
Overcast Overcast  
Wind Chill: 18°   Ceiling: 800
Heat Index: 24°   Visibility: 7mi
Dew Point: 22°   Wind: 5mph
Humidity: 92%   Direction: 180°S
Pressure: 30.17"   Gusts: NA
Location:  45.9599°N, 90.2362°W
Report Text: KPBH 201455Z AUTO 18004KT 7SM OVC008 M04/M05 A3017 RMK AO2 T10431054
Loading
Personal Weather Stations






























Interactive Weather Map New forecast layout! Learn more

10-Day Weather Forecast

Advertisements
Track Severe Weather on mobile